createdAt,value
2023-07-30T00:01:43.044Z,65.91
2023-07-30T00:04:28.445Z,66.37
2023-07-30T00:07:14.069Z,66.56
2023-07-30T00:09:59.725Z,66.76
2023-07-30T00:12:45.361Z,66.84
2023-07-30T00:15:30.990Z,66.95
2023-07-30T00:18:16.911Z,66.30
2023-07-30T00:21:02.418Z,66.86
2023-07-30T00:23:47.978Z,66.37
2023-07-30T00:26:33.769Z,67.01
2023-07-30T00:29:19.583Z,67.29
2023-07-30T00:32:05.699Z,67.01
2023-07-30T00:34:51.460Z,66.90
2023-07-30T00:37:37.113Z,66.82
2023-07-30T00:40:22.686Z,66.79
2023-07-30T00:43:08.377Z,66.94
2023-07-30T00:45:54.255Z,66.96
2023-07-30T00:48:39.745Z,66.79
2023-07-30T00:51:26.193Z,66.58
2023-07-30T00:54:12.470Z,66.61
2023-07-30T00:56:58.518Z,66.35
2023-07-30T00:59:44.426Z,66.06
2023-07-30T01:02:30.716Z,66.50
2023-07-30T01:05:16.242Z,66.07
2023-07-30T01:08:01.814Z,66.46
2023-07-30T01:10:47.455Z,65.97
2023-07-30T01:13:34.743Z,66.04
2023-07-30T01:16:20.194Z,65.99
2023-07-30T01:19:06.946Z,66.09
2023-07-30T01:21:52.457Z,66.49
2023-07-30T01:24:37.885Z,66.38
2023-07-30T01:27:32.377Z,66.47
2023-07-30T01:30:23.983Z,66.36
2023-07-30T01:33:11.650Z,66.25
2023-07-30T01:35:59.510Z,66.23
2023-07-30T01:38:45.529Z,66.41
2023-07-30T01:41:31.045Z,66.24
2023-07-30T01:44:16.443Z,66.79
2023-07-30T01:47:01.703Z,66.97
2023-07-30T01:49:47.001Z,67.52
2023-07-30T01:52:32.401Z,67.73
2023-07-30T01:55:18.211Z,67.68
2023-07-30T01:58:04.298Z,67.14
2023-07-30T02:00:49.899Z,67.84
2023-07-30T02:03:35.591Z,67.65
2023-07-30T02:06:20.900Z,67.53
2023-07-30T02:09:06.311Z,67.40
2023-07-30T02:11:51.944Z,67.58
2023-07-30T02:14:37.580Z,67.70
2023-07-30T02:17:22.915Z,67.57
2023-07-30T02:20:09.285Z,67.19
2023-07-30T02:22:54.681Z,67.30
2023-07-30T02:25:40.129Z,67.64
2023-07-30T02:28:25.670Z,67.44
2023-07-30T02:31:11.112Z,68.00
2023-07-30T02:33:56.412Z,67.58
2023-07-30T02:36:41.827Z,67.96
2023-07-30T02:39:27.240Z,67.70
2023-07-30T02:42:12.617Z,68.06
2023-07-30T02:44:57.898Z,68.28
2023-07-30T02:47:43.987Z,68.14
2023-07-30T02:50:29.353Z,68.39
2023-07-30T02:53:14.933Z,68.66
2023-07-30T02:56:00.239Z,68.36
2023-07-30T02:58:45.689Z,68.63
2023-07-30T03:01:30.983Z,68.41
2023-07-30T03:04:16.392Z,68.70
2023-07-30T03:07:02.072Z,68.45
2023-07-30T03:09:48.014Z,68.32
2023-07-30T03:12:33.525Z,68.41
2023-07-30T03:15:18.843Z,68.85
2023-07-30T03:18:04.320Z,68.97
2023-07-30T03:20:49.977Z,69.10
2023-07-30T03:23:35.255Z,68.94
2023-07-30T03:26:20.750Z,68.76
2023-07-30T03:29:06.748Z,68.93
2023-07-30T03:31:52.148Z,68.88
2023-07-30T03:34:37.548Z,68.80
2023-07-30T03:37:22.960Z,69.11
2023-07-30T03:40:08.930Z,69.01
2023-07-30T03:42:54.822Z,69.55
2023-07-30T03:45:40.671Z,69.24
2023-07-30T03:48:26.329Z,69.49
2023-07-30T03:51:11.917Z,69.44
2023-07-30T03:53:57.878Z,69.53
2023-07-30T03:56:43.297Z,69.71
2023-07-30T03:59:29.911Z,69.90
2023-07-30T04:02:16.976Z,70.29
2023-07-30T04:05:02.421Z,70.55
2023-07-30T04:07:47.811Z,70.13
2023-07-30T04:10:33.797Z,70.49
2023-07-30T04:13:19.405Z,70.73
2023-07-30T04:16:05.112Z,70.47
2023-07-30T04:18:50.544Z,70.12
2023-07-30T04:21:36.271Z,70.85
2023-07-30T04:24:22.022Z,70.53
2023-07-30T04:27:07.726Z,70.96
2023-07-30T04:29:53.459Z,70.94
2023-07-30T04:32:39.076Z,71.48
2023-07-30T04:35:24.392Z,72.01
2023-07-30T04:38:10.513Z,71.49
2023-07-30T04:40:59.415Z,71.87
2023-07-30T04:43:45.342Z,71.51
2023-07-30T04:46:31.258Z,72.13
2023-07-30T04:49:17.947Z,72.36
2023-07-30T04:52:04.364Z,72.21
2023-07-30T04:54:49.799Z,72.35
2023-07-30T04:57:35.708Z,72.67
2023-07-30T05:00:21.387Z,72.92
2023-07-30T05:03:07.073Z,73.25
2023-07-30T05:05:52.822Z,73.31
2023-07-30T05:08:38.374Z,73.63
2023-07-30T05:11:23.811Z,73.97
2023-07-30T05:14:09.303Z,73.99
2023-07-30T05:16:54.943Z,74.32
2023-07-30T05:19:40.721Z,74.39
2023-07-30T05:22:26.609Z,74.21
2023-07-30T05:25:13.404Z,74.47
2023-07-30T05:27:59.299Z,74.37
2023-07-30T05:30:45.177Z,74.58
2023-07-30T05:33:31.182Z,74.53
2023-07-30T05:36:16.698Z,74.57
2023-07-30T05:39:02.347Z,74.66
2023-07-30T05:41:48.097Z,74.84
2023-07-30T05:44:33.628Z,75.53
2023-07-30T05:47:19.127Z,76.06
2023-07-30T05:50:05.149Z,76.26
2023-07-30T05:52:50.449Z,76.27
2023-07-30T05:55:36.072Z,75.95
2023-07-30T05:58:21.707Z,75.98
2023-07-30T06:01:07.196Z,77.56
2023-07-30T06:03:53.192Z,77.92
2023-07-30T06:06:38.497Z,77.11
2023-07-30T06:09:23.906Z,77.29
2023-07-30T06:12:09.693Z,76.58
2023-07-30T06:14:55.198Z,76.48
2023-07-30T06:17:40.943Z,76.83
2023-07-30T06:20:26.575Z,76.69
2023-07-30T06:23:12.017Z,76.46
2023-07-30T06:25:57.607Z,76.59
2023-07-30T06:28:43.178Z,76.49
2023-07-30T06:31:29.017Z,76.79
2023-07-30T06:34:14.642Z,76.60
2023-07-30T06:37:00.200Z,77.19
2023-07-30T06:39:45.557Z,77.22
2023-07-30T06:42:30.920Z,77.67
2023-07-30T06:45:16.672Z,75.67
2023-07-30T06:48:02.145Z,76.89
2023-07-30T06:50:47.741Z,76.45
2023-07-30T06:53:33.521Z,75.95
2023-07-30T06:56:18.799Z,76.76
2023-07-30T06:59:04.673Z,77.30
2023-07-30T07:01:50.193Z,77.24
2023-07-30T07:04:35.682Z,77.88
2023-07-30T07:07:21.794Z,77.68
2023-07-30T07:10:07.620Z,77.59
2023-07-30T07:12:53.113Z,78.25
2023-07-30T07:15:38.443Z,76.95
2023-07-30T07:18:23.916Z,77.91
2023-07-30T07:21:09.406Z,77.30
2023-07-30T07:23:55.138Z,77.46
2023-07-30T07:26:40.695Z,78.88
2023-07-30T07:29:26.349Z,78.19
2023-07-30T07:32:12.146Z,77.49
2023-07-30T07:34:57.810Z,78.01
2023-07-30T07:37:43.179Z,76.87
2023-07-30T07:40:29.152Z,77.04
2023-07-30T07:43:14.618Z,76.83
2023-07-30T07:46:00.199Z,76.58
2023-07-30T07:48:45.591Z,77.28
2023-07-30T07:51:30.851Z,77.42
2023-07-30T07:54:16.374Z,77.53
2023-07-30T07:57:01.818Z,77.72
2023-07-30T07:59:48.162Z,77.66
2023-07-30T08:02:35.358Z,76.87
2023-07-30T08:05:21.032Z,75.81
2023-07-30T08:08:06.708Z,76.78
2023-07-30T08:10:52.173Z,75.60
2023-07-30T08:13:37.785Z,75.86
2023-07-30T08:16:23.490Z,75.58
2023-07-30T08:19:08.986Z,75.85
2023-07-30T08:21:56.508Z,75.69
2023-07-30T08:24:41.938Z,75.00
2023-07-30T08:27:27.263Z,75.49
2023-07-30T08:30:13.556Z,75.07
2023-07-30T08:32:58.998Z,73.93
2023-07-30T08:35:44.507Z,73.51
2023-07-30T08:38:30.856Z,73.34
2023-07-30T08:41:16.833Z,73.45
2023-07-30T08:44:03.286Z,73.34
2023-07-30T08:46:48.977Z,72.74
2023-07-30T08:49:35.759Z,72.05
2023-07-30T08:52:23.305Z,71.60
2023-07-30T08:55:09.420Z,71.30
2023-07-30T08:57:55.897Z,70.48
2023-07-30T09:00:42.318Z,70.42
2023-07-30T09:03:29.203Z,70.50
2023-07-30T09:06:14.731Z,69.82
2023-07-30T09:09:00.122Z,69.78
2023-07-30T09:11:52.450Z,69.54
2023-07-30T09:14:37.793Z,69.74
2023-07-30T09:17:23.707Z,69.56
2023-07-30T09:20:09.474Z,69.38
2023-07-30T09:22:57.796Z,68.70
2023-07-30T09:25:43.611Z,68.54
2023-07-30T09:28:32.756Z,67.35
2023-07-30T09:31:22.761Z,67.06
2023-07-30T09:34:09.630Z,66.86
2023-07-30T09:36:55.984Z,66.43
2023-07-30T09:39:41.775Z,66.41
2023-07-30T09:42:31.434Z,66.08
2023-07-30T09:45:25.581Z,64.99
2023-07-30T09:48:11.412Z,63.95
2023-07-30T09:50:59.963Z,64.03
2023-07-30T09:53:45.598Z,64.02
2023-07-30T09:56:30.992Z,63.83
2023-07-30T09:59:16.574Z,63.35
2023-07-30T10:02:02.090Z,62.82
2023-07-30T10:04:52.060Z,62.38
2023-07-30T10:07:42.752Z,61.84
2023-07-30T10:10:30.044Z,61.92
2023-07-30T10:13:17.384Z,62.19
2023-07-30T10:16:03.357Z,61.73
2023-07-30T10:18:56.372Z,62.65
2023-07-30T10:21:43.699Z,62.93
2023-07-30T10:24:29.436Z,62.92
2023-07-30T10:27:25.810Z,62.76
2023-07-30T10:30:11.708Z,62.55
2023-07-30T10:32:57.003Z,62.61
2023-07-30T10:35:47.528Z,62.48
2023-07-30T10:38:35.614Z,62.49
2023-07-30T10:41:22.196Z,62.22
2023-07-30T10:44:07.831Z,61.67
2023-07-30T10:46:55.112Z,61.60
2023-07-30T10:49:45.101Z,60.94
2023-07-30T10:52:30.701Z,61.00
2023-07-30T10:55:16.423Z,61.05
2023-07-30T10:58:02.703Z,60.51
2023-07-30T11:00:50.378Z,60.28
2023-07-30T11:03:37.337Z,60.25
2023-07-30T11:06:24.941Z,60.09
2023-07-30T11:09:20.531Z,59.84
2023-07-30T11:12:10.812Z,59.56
2023-07-30T11:15:05.971Z,59.05
2023-07-30T11:17:53.654Z,59.28
2023-07-30T11:20:39.157Z,56.82
2023-07-30T11:23:24.923Z,58.74
2023-07-30T11:26:19.039Z,58.15
2023-07-30T11:29:21.290Z,56.56
2023-07-30T11:32:07.087Z,57.52
2023-07-30T11:34:56.365Z,57.51
2023-07-30T11:37:43.887Z,57.10
2023-07-30T11:40:30.495Z,56.42
2023-07-30T11:43:15.757Z,56.85
2023-07-30T11:46:11.807Z,56.13
2023-07-30T11:49:14.897Z,56.34
2023-07-30T11:52:07.079Z,56.66
2023-07-30T11:55:04.105Z,56.58
2023-07-30T11:57:50.144Z,57.00
2023-07-30T12:00:38.773Z,57.21
2023-07-30T12:03:27.793Z,56.89
2023-07-30T12:06:14.313Z,56.60
2023-07-30T12:09:00.121Z,56.06
2023-07-30T12:11:52.916Z,56.27
2023-07-30T12:14:55.294Z,56.06
2023-07-30T12:17:41.311Z,55.66
2023-07-30T12:20:29.242Z,55.53
2023-07-30T12:23:15.151Z,55.80
2023-07-30T12:26:00.724Z,55.49
2023-07-30T12:28:46.486Z,54.97
2023-07-30T12:31:32.124Z,55.25
2023-07-30T12:34:17.467Z,55.69
2023-07-30T12:37:03.001Z,55.60
2023-07-30T12:39:48.319Z,55.84
2023-07-30T12:42:34.036Z,55.67
2023-07-30T12:45:19.603Z,55.30
2023-07-30T12:48:08.823Z,55.60
2023-07-30T12:50:55.890Z,55.75
2023-07-30T12:53:42.957Z,55.40
2023-07-30T12:56:28.361Z,56.08
2023-07-30T12:59:13.998Z,56.15
2023-07-30T13:01:59.823Z,56.42
2023-07-30T13:04:45.547Z,56.56
2023-07-30T13:07:31.442Z,56.33
2023-07-30T13:10:17.159Z,56.78
2023-07-30T13:13:03.114Z,56.83
2023-07-30T13:15:48.570Z,56.81
2023-07-30T13:18:34.008Z,56.89
2023-07-30T13:21:19.679Z,56.90
2023-07-30T13:24:05.293Z,57.31
2023-07-30T13:26:51.074Z,57.61
2023-07-30T13:29:36.475Z,57.64
2023-07-30T13:32:21.959Z,57.86
2023-07-30T13:35:07.597Z,58.42
2023-07-30T13:37:53.244Z,58.94
2023-07-30T13:40:38.678Z,59.08
2023-07-30T13:43:24.189Z,59.25
2023-07-30T13:46:09.879Z,59.35
2023-07-30T13:48:55.294Z,59.61
2023-07-30T13:51:40.927Z,59.83
2023-07-30T13:54:26.934Z,60.02
2023-07-30T13:57:12.635Z,59.73
2023-07-30T13:59:58.292Z,59.51
2023-07-30T14:02:44.479Z,59.16
2023-07-30T14:05:30.235Z,59.12
2023-07-30T14:08:15.701Z,59.04
2023-07-30T14:11:02.172Z,59.10
2023-07-30T14:13:47.595Z,59.19
2023-07-30T14:16:33.982Z,58.98
2023-07-30T14:19:19.331Z,59.12
2023-07-30T14:22:05.158Z,59.06
2023-07-30T14:24:50.971Z,58.91
2023-07-30T14:27:36.545Z,58.74
2023-07-30T14:30:22.325Z,58.30
2023-07-30T14:33:08.666Z,57.10
2023-07-30T14:35:54.101Z,56.63
2023-07-30T14:38:39.710Z,55.89
2023-07-30T14:41:25.064Z,55.11
2023-07-30T14:44:10.612Z,53.76
2023-07-30T14:46:58.075Z,53.16
2023-07-30T14:49:44.705Z,49.10
2023-07-30T14:52:30.566Z,51.21
2023-07-30T14:55:16.019Z,51.07
2023-07-30T14:58:02.040Z,50.04
2023-07-30T15:00:47.613Z,49.66
2023-07-30T15:03:33.097Z,50.33
2023-07-30T15:06:20.197Z,49.93
2023-07-30T15:09:05.662Z,49.64
2023-07-30T15:11:51.065Z,50.06
2023-07-30T15:14:36.548Z,50.40
2023-07-30T15:17:22.036Z,50.34
2023-07-30T15:20:07.896Z,50.34
2023-07-30T15:22:53.354Z,50.88
2023-07-30T15:25:38.922Z,50.76
2023-07-30T15:28:25.357Z,50.99
2023-07-30T15:31:10.976Z,51.42
2023-07-30T15:33:56.607Z,51.57
2023-07-30T15:36:42.578Z,51.99
2023-07-30T15:39:28.458Z,52.04
2023-07-30T15:42:14.108Z,51.54
2023-07-30T15:44:59.656Z,51.68
2023-07-30T15:47:45.513Z,51.20
2023-07-30T15:50:31.295Z,51.85
2023-07-30T15:53:16.596Z,51.31
2023-07-30T15:56:06.185Z,51.93
2023-07-30T15:58:51.715Z,51.34
2023-07-30T16:01:37.314Z,51.99
2023-07-30T16:04:23.134Z,51.56
2023-07-30T16:07:10.935Z,51.06
2023-07-30T16:09:56.620Z,51.22
2023-07-30T17:02:49.902Z,54.23
2023-07-30T17:05:35.408Z,54.46
2023-07-30T17:08:20.746Z,54.53
2023-07-30T17:11:08.093Z,54.89
2023-07-30T17:13:55.390Z,55.28
2023-07-30T17:16:43.606Z,55.43
2023-07-30T17:19:29.723Z,55.62
2023-07-30T17:22:15.399Z,55.71
2023-07-30T17:25:02.021Z,55.75
2023-07-30T17:27:47.805Z,56.07
2023-07-30T17:30:34.992Z,56.21
2023-07-30T17:33:20.576Z,56.23
2023-07-30T17:36:09.320Z,56.23
2023-07-30T17:38:54.873Z,56.05
2023-07-30T17:41:40.371Z,56.36
2023-07-30T17:44:25.796Z,56.41
2023-07-30T17:47:11.413Z,56.44
2023-07-30T17:49:57.412Z,56.40
2023-07-30T17:52:43.070Z,56.66
2023-07-30T17:55:28.514Z,56.74
2023-07-30T17:58:14.424Z,56.77
2023-07-30T18:01:06.503Z,56.97
2023-07-30T18:03:52.301Z,56.90
2023-07-30T18:06:37.937Z,56.92
2023-07-30T18:09:23.727Z,57.08
2023-07-30T18:12:09.558Z,57.14
2023-07-30T18:14:55.186Z,57.30
2023-07-30T18:17:40.969Z,57.33
2023-07-30T18:20:26.232Z,57.56
2023-07-30T18:23:11.793Z,57.70
2023-07-30T18:25:57.299Z,58.02
2023-07-30T18:28:42.835Z,58.18
2023-07-30T18:31:28.540Z,58.45
2023-07-30T18:34:14.001Z,58.84
2023-07-30T18:37:01.561Z,59.02
2023-07-30T18:39:46.830Z,59.38
2023-07-30T18:42:33.267Z,59.83
2023-07-30T18:45:19.152Z,59.86
2023-07-30T18:48:04.802Z,59.64
2023-07-30T18:50:52.512Z,59.92
2023-07-30T18:53:38.701Z,60.40
2023-07-30T18:56:24.077Z,60.36
2023-07-30T18:59:09.818Z,60.52
2023-07-30T19:01:55.764Z,60.85
2023-07-30T19:04:41.224Z,60.66
2023-07-30T19:07:26.733Z,60.98
2023-07-30T19:10:14.813Z,61.07
2023-07-30T19:13:00.320Z,61.48
2023-07-30T19:15:47.442Z,61.42
2023-07-30T19:18:33.974Z,61.31
2023-07-30T19:21:20.180Z,61.58
2023-07-30T19:24:07.091Z,61.25
2023-07-30T19:26:53.357Z,62.07
2023-07-30T19:29:40.463Z,61.73
2023-07-30T19:32:26.619Z,61.38
2023-07-30T19:35:12.435Z,61.60
2023-07-30T19:37:58.788Z,62.03
2023-07-30T19:40:44.289Z,62.05
2023-07-30T19:43:31.147Z,62.11
2023-07-30T19:46:17.419Z,62.30
2023-07-30T19:49:03.570Z,62.69
2023-07-30T19:51:49.205Z,62.62
2023-07-30T19:54:34.889Z,62.45
2023-07-30T19:57:20.264Z,62.49
2023-07-30T20:00:06.382Z,62.45
2023-07-30T20:02:54.828Z,61.85
2023-07-30T20:05:40.391Z,61.76
2023-07-30T20:08:25.997Z,61.56
2023-07-30T20:11:11.564Z,61.87
2023-07-30T20:13:56.978Z,61.67
2023-07-30T20:16:42.930Z,61.84
2023-07-30T20:19:28.491Z,61.39
2023-07-30T20:22:15.122Z,61.27
2023-07-30T20:25:00.477Z,61.45
2023-07-30T20:27:45.951Z,61.47
2023-07-30T20:30:36.244Z,60.94
2023-07-30T20:33:22.379Z,60.72
2023-07-30T20:36:08.184Z,60.49
2023-07-30T20:38:53.901Z,60.59
2023-07-30T20:41:39.929Z,60.39
2023-07-30T20:44:25.441Z,60.46
2023-07-30T20:47:11.124Z,60.24
2023-07-30T20:49:56.769Z,59.82
2023-07-30T20:52:46.718Z,59.66
2023-07-30T20:55:33.516Z,59.61
2023-07-30T20:58:21.335Z,59.38
2023-07-30T21:01:07.286Z,59.38
2023-07-30T21:03:52.888Z,59.76
2023-07-30T21:06:38.579Z,59.66
2023-07-30T21:09:24.780Z,59.53
2023-07-30T21:12:10.732Z,59.60
2023-07-30T21:14:56.171Z,59.26
2023-07-30T21:17:41.865Z,59.20
2023-07-30T21:20:27.256Z,59.44
2023-07-30T21:23:12.751Z,59.35
2023-07-30T21:25:58.180Z,59.43
2023-07-30T21:28:43.619Z,59.09
2023-07-30T21:31:29.164Z,59.32
2023-07-30T21:34:14.532Z,59.10
2023-07-30T21:36:59.906Z,59.24
2023-07-30T21:39:45.517Z,58.99
2023-07-30T21:42:32.387Z,59.23
2023-07-30T21:45:18.045Z,58.95
2023-07-30T21:48:03.512Z,59.15
2023-07-30T21:51:05.124Z,58.85
2023-07-30T21:53:51.071Z,58.87
2023-07-30T21:56:36.793Z,58.88
2023-07-30T21:59:22.713Z,59.03
2023-07-30T22:02:08.263Z,59.07
2023-07-30T22:04:53.576Z,59.26
2023-07-30T22:07:39.109Z,59.31
2023-07-30T22:10:24.508Z,59.25
2023-07-30T22:13:14.512Z,59.02
2023-07-30T22:16:00.220Z,59.36
2023-07-30T22:18:45.808Z,59.40
2023-07-30T22:21:31.290Z,59.10
2023-07-30T22:24:16.752Z,59.19
2023-07-30T22:27:02.011Z,59.28
2023-07-30T22:29:47.701Z,59.15
2023-07-30T22:32:33.045Z,59.12
2023-07-30T22:35:18.445Z,58.91
2023-07-30T22:38:04.020Z,58.76
2023-07-30T22:40:49.450Z,59.21
2023-07-30T22:43:34.932Z,59.38
2023-07-30T22:46:20.408Z,59.36
2023-07-30T22:49:05.895Z,59.49
2023-07-30T22:51:51.528Z,59.80
2023-07-30T22:54:36.883Z,60.38
2023-07-30T22:57:22.392Z,60.50
2023-07-30T23:00:08.493Z,60.51
2023-07-30T23:02:54.581Z,60.61
2023-07-30T23:05:39.919Z,61.07
2023-07-30T23:08:25.494Z,60.89
2023-07-30T23:11:10.776Z,60.90
2023-07-30T23:13:56.219Z,61.31
2023-07-30T23:16:42.071Z,61.81
2023-07-30T23:19:28.062Z,61.28
2023-07-30T23:22:13.749Z,61.94
2023-07-30T23:24:59.191Z,61.80
2023-07-30T23:27:44.577Z,61.96
2023-07-30T23:30:30.338Z,61.50
2023-07-30T23:33:16.436Z,61.27
2023-07-30T23:36:09.096Z,61.64
2023-07-30T23:38:54.599Z,61.56
2023-07-30T23:41:40.161Z,61.32
2023-07-30T23:44:25.441Z,61.81
2023-07-30T23:47:11.053Z,61.01
2023-07-30T23:49:56.804Z,61.53
2023-07-30T23:52:42.092Z,60.91
2023-07-30T23:55:27.503Z,61.43
2023-07-30T23:58:12.899Z,61.66
